sensor_id;sensor_type;location;lat;lon;timestamp;temperature;humidity
51613;DHT22;37694;51.748;14.326;2023-08-12T00:00:10;21.70;50.20
51613;DHT22;37694;51.748;14.326;2023-08-12T00:02:40;21.70;50.70
51613;DHT22;37694;51.748;14.326;2023-08-12T00:05:07;21.70;51.20
51613;DHT22;37694;51.748;14.326;2023-08-12T00:07:33;21.70;51.70
51613;DHT22;37694;51.748;14.326;2023-08-12T00:10:01;21.70;51.90
51613;DHT22;37694;51.748;14.326;2023-08-12T00:12:29;21.70;52.50
51613;DHT22;37694;51.748;14.326;2023-08-12T00:14:55;21.70;52.80
51613;DHT22;37694;51.748;14.326;2023-08-12T00:17:20;21.70;52.80
51613;DHT22;37694;51.748;14.326;2023-08-12T00:19:46;21.70;53.30
51613;DHT22;37694;51.748;14.326;2023-08-12T00:22:12;21.70;53.40
51613;DHT22;37694;51.748;14.326;2023-08-12T00:24:38;21.70;53.90
51613;DHT22;37694;51.748;14.326;2023-08-12T00:27:05;21.70;54.20
51613;DHT22;37694;51.748;14.326;2023-08-12T00:29:32;21.70;54.30
51613;DHT22;37694;51.748;14.326;2023-08-12T00:31:58;21.70;54.50
51613;DHT22;37694;51.748;14.326;2023-08-12T00:34:23;21.70;54.50
51613;DHT22;37694;51.748;14.326;2023-08-12T00:36:49;21.80;55.40
51613;DHT22;37694;51.748;14.326;2023-08-12T00:39:15;22.00;55.30
51613;DHT22;37694;51.748;14.326;2023-08-12T00:41:41;22.20;55.10
51613;DHT22;37694;51.748;14.326;2023-08-12T00:44:06;22.30;54.80
51613;DHT22;37694;51.748;14.326;2023-08-12T00:46:33;22.40;54.70
51613;DHT22;37694;51.748;14.326;2023-08-12T00:48:59;22.60;54.60
51613;DHT22;37694;51.748;14.326;2023-08-12T00:51:25;22.60;54.40
51613;DHT22;37694;51.748;14.326;2023-08-12T00:53:52;22.70;54.50
51613;DHT22;37694;51.748;14.326;2023-08-12T00:56:18;22.70;54.30
51613;DHT22;37694;51.748;14.326;2023-08-12T00:58:45;22.80;54.50
51613;DHT22;37694;51.748;14.326;2023-08-12T01:01:11;22.90;54.50
51613;DHT22;37694;51.748;14.326;2023-08-12T01:03:37;22.90;54.40
51613;DHT22;37694;51.748;14.326;2023-08-12T01:06:03;22.90;54.10
51613;DHT22;37694;51.748;14.326;2023-08-12T01:08:30;23.00;53.50
51613;DHT22;37694;51.748;14.326;2023-08-12T01:16:21;23.20;52.60
51613;DHT22;37694;51.748;14.326;2023-08-12T01:18:49;23.20;52.30
51613;DHT22;37694;51.748;14.326;2023-08-12T01:21:16;23.30;52.20
51613;DHT22;37694;51.748;14.326;2023-08-12T01:23:43;23.30;52.00
51613;DHT22;37694;51.748;14.326;2023-08-12T01:26:10;23.40;52.00
51613;DHT22;37694;51.748;14.326;2023-08-12T01:28:35;23.40;52.60
51613;DHT22;37694;51.748;14.326;2023-08-12T01:31:11;23.50;51.70
51613;DHT22;37694;51.748;14.326;2023-08-12T01:33:52;23.50;52.40
51613;DHT22;37694;51.748;14.326;2023-08-12T01:36:20;23.60;51.50
51613;DHT22;37694;51.748;14.326;2023-08-12T01:38:51;23.60;51.50
51613;DHT22;37694;51.748;14.326;2023-08-12T01:41:18;23.60;51.40
51613;DHT22;37694;51.748;14.326;2023-08-12T01:43:45;23.60;51.30
51613;DHT22;37694;51.748;14.326;2023-08-12T01:46:11;23.60;51.20
51613;DHT22;37694;51.748;14.326;2023-08-12T01:48:36;23.70;51.20
51613;DHT22;37694;51.748;14.326;2023-08-12T01:51:02;23.70;51.20
51613;DHT22;37694;51.748;14.326;2023-08-12T01:53:28;23.70;51.10
51613;DHT22;37694;51.748;14.326;2023-08-12T01:55:54;23.70;51.10
51613;DHT22;37694;51.748;14.326;2023-08-12T01:58:20;23.70;51.00
51613;DHT22;37694;51.748;14.326;2023-08-12T02:00:45;23.80;51.10
51613;DHT22;37694;51.748;14.326;2023-08-12T02:03:11;23.80;51.00
51613;DHT22;37694;51.748;14.326;2023-08-12T02:05:36;23.80;51.00
51613;DHT22;37694;51.748;14.326;2023-08-12T02:08:06;23.80;51.00
51613;DHT22;37694;51.748;14.326;2023-08-12T02:10:32;23.80;51.00
51613;DHT22;37694;51.748;14.326;2023-08-12T02:12:57;23.80;50.90
51613;DHT22;37694;51.748;14.326;2023-08-12T02:15:23;23.90;50.90
51613;DHT22;37694;51.748;14.326;2023-08-12T02:17:49;23.90;50.80
51613;DHT22;37694;51.748;14.326;2023-08-12T02:20:15;23.90;50.70
51613;DHT22;37694;51.748;14.326;2023-08-12T02:22:40;23.90;50.60
51613;DHT22;37694;51.748;14.326;2023-08-12T02:25:06;23.90;50.60
51613;DHT22;37694;51.748;14.326;2023-08-12T02:27:32;23.90;50.60
51613;DHT22;37694;51.748;14.326;2023-08-12T02:29:58;23.90;51.40
51613;DHT22;37694;51.748;14.326;2023-08-12T02:32:23;23.90;50.60
51613;DHT22;37694;51.748;14.326;2023-08-12T02:34:49;23.90;50.60
51613;DHT22;37694;51.748;14.326;2023-08-12T02:37:15;24.00;50.60
51613;DHT22;37694;51.748;14.326;2023-08-12T02:39:40;24.00;50.60
51613;DHT22;37694;51.748;14.326;2023-08-12T02:42:06;24.00;50.60
51613;DHT22;37694;51.748;14.326;2023-08-12T02:44:32;24.00;50.60
51613;DHT22;37694;51.748;14.326;2023-08-12T02:46:57;24.00;50.70
51613;DHT22;37694;51.748;14.326;2023-08-12T02:49:23;24.00;50.60
51613;DHT22;37694;51.748;14.326;2023-08-12T02:51:49;24.00;50.60
51613;DHT22;37694;51.748;14.326;2023-08-12T02:54:14;24.00;50.60
51613;DHT22;37694;51.748;14.326;2023-08-12T02:56:40;24.00;50.60
51613;DHT22;37694;51.748;14.326;2023-08-12T02:59:06;24.00;50.60
51613;DHT22;37694;51.748;14.326;2023-08-12T03:01:31;24.00;50.60
51613;DHT22;37694;51.748;14.326;2023-08-12T03:03:57;24.10;50.70
51613;DHT22;37694;51.748;14.326;2023-08-12T03:06:23;24.10;50.60
51613;DHT22;37694;51.748;14.326;2023-08-12T03:08:48;24.10;50.60
51613;DHT22;37694;51.748;14.326;2023-08-12T03:11:14;24.10;50.70
51613;DHT22;37694;51.748;14.326;2023-08-12T03:13:41;24.10;50.70
51613;DHT22;37694;51.748;14.326;2023-08-12T03:16:14;24.10;50.70
51613;DHT22;37694;51.748;14.326;2023-08-12T03:18:40;24.10;50.60
51613;DHT22;37694;51.748;14.326;2023-08-12T03:21:09;24.10;50.70
51613;DHT22;37694;51.748;14.326;2023-08-12T03:23:36;24.10;50.60
51613;DHT22;37694;51.748;14.326;2023-08-12T03:26:02;24.10;50.60
51613;DHT22;37694;51.748;14.326;2023-08-12T03:28:28;24.10;50.70
51613;DHT22;37694;51.748;14.326;2023-08-12T03:30:53;24.10;50.60
51613;DHT22;37694;51.748;14.326;2023-08-12T03:33:19;24.20;51.10
51613;DHT22;37694;51.748;14.326;2023-08-12T03:35:46;24.20;50.60
51613;DHT22;37694;51.748;14.326;2023-08-12T03:38:12;24.20;50.60
51613;DHT22;37694;51.748;14.326;2023-08-12T03:40:39;24.20;50.60
51613;DHT22;37694;51.748;14.326;2023-08-12T03:43:05;24.20;50.60
51613;DHT22;37694;51.748;14.326;2023-08-12T03:45:30;24.20;50.60
51613;DHT22;37694;51.748;14.326;2023-08-12T03:47:56;24.20;50.60
51613;DHT22;37694;51.748;14.326;2023-08-12T03:50:22;24.20;50.50
51613;DHT22;37694;51.748;14.326;2023-08-12T03:52:47;24.20;50.50
51613;DHT22;37694;51.748;14.326;2023-08-12T03:55:13;24.20;50.50
51613;DHT22;37694;51.748;14.326;2023-08-12T03:57:39;24.20;50.60
51613;DHT22;37694;51.748;14.326;2023-08-12T04:00:06;24.20;50.50
51613;DHT22;37694;51.748;14.326;2023-08-12T04:02:33;24.20;50.40
51613;DHT22;37694;51.748;14.326;2023-08-12T04:04:59;24.20;50.50
51613;DHT22;37694;51.748;14.326;2023-08-12T04:07:25;24.30;50.50
51613;DHT22;37694;51.748;14.326;2023-08-12T04:09:52;24.20;50.50
51613;DHT22;37694;51.748;14.326;2023-08-12T04:12:18;24.30;50.50
51613;DHT22;37694;51.748;14.326;2023-08-12T04:14:43;24.30;50.50
51613;DHT22;37694;51.748;14.326;2023-08-12T04:17:09;24.30;50.50
51613;DHT22;37694;51.748;14.326;2023-08-12T04:19:35;24.30;50.60
51613;DHT22;37694;51.748;14.326;2023-08-12T04:22:00;24.30;50.60
51613;DHT22;37694;51.748;14.326;2023-08-12T04:24:26;24.30;50.60
51613;DHT22;37694;51.748;14.326;2023-08-12T04:26:52;24.30;50.60
51613;DHT22;37694;51.748;14.326;2023-08-12T04:29:17;24.30;50.60
51613;DHT22;37694;51.748;14.326;2023-08-12T04:31:43;24.30;50.60
51613;DHT22;37694;51.748;14.326;2023-08-12T04:34:09;24.30;50.60
51613;DHT22;37694;51.748;14.326;2023-08-12T04:36:34;24.30;50.60
51613;DHT22;37694;51.748;14.326;2023-08-12T04:39:00;24.30;50.60
51613;DHT22;37694;51.748;14.326;2023-08-12T04:41:26;24.30;50.70
51613;DHT22;37694;51.748;14.326;2023-08-12T04:43:52;24.30;50.60
51613;DHT22;37694;51.748;14.326;2023-08-12T04:46:18;24.30;50.80
51613;DHT22;37694;51.748;14.326;2023-08-12T04:48:43;24.30;50.60
51613;DHT22;37694;51.748;14.326;2023-08-12T04:51:09;24.30;50.60
51613;DHT22;37694;51.748;14.326;2023-08-12T04:53:35;24.40;50.60
51613;DHT22;37694;51.748;14.326;2023-08-12T04:56:01;24.30;50.60
51613;DHT22;37694;51.748;14.326;2023-08-12T04:58:27;24.40;50.70
51613;DHT22;37694;51.748;14.326;2023-08-12T05:00:53;24.40;50.70
51613;DHT22;37694;51.748;14.326;2023-08-12T05:03:18;24.40;50.60
51613;DHT22;37694;51.748;14.326;2023-08-12T05:05:49;24.40;50.60
51613;DHT22;37694;51.748;14.326;2023-08-12T05:08:15;24.40;50.50
51613;DHT22;37694;51.748;14.326;2023-08-12T05:10:40;24.40;50.50
51613;DHT22;37694;51.748;14.326;2023-08-12T05:13:06;24.40;50.50
51613;DHT22;37694;51.748;14.326;2023-08-12T05:15:32;24.40;50.50
51613;DHT22;37694;51.748;14.326;2023-08-12T05:17:57;24.40;50.50
51613;DHT22;37694;51.748;14.326;2023-08-12T05:20:23;24.40;50.50
51613;DHT22;37694;51.748;14.326;2023-08-12T05:22:49;24.40;50.50
51613;DHT22;37694;51.748;14.326;2023-08-12T05:25:14;24.50;50.50
51613;DHT22;37694;51.748;14.326;2023-08-12T05:27:40;24.40;50.40
51613;DHT22;37694;51.748;14.326;2023-08-12T05:30:07;24.50;50.60
51613;DHT22;37694;51.748;14.326;2023-08-12T05:32:32;24.50;50.60
51613;DHT22;37694;51.748;14.326;2023-08-12T05:34:58;24.50;50.50
51613;DHT22;37694;51.748;14.326;2023-08-12T05:37:24;24.50;50.50
51613;DHT22;37694;51.748;14.326;2023-08-12T05:39:49;24.50;50.50
51613;DHT22;37694;51.748;14.326;2023-08-12T05:42:15;24.50;50.50
51613;DHT22;37694;51.748;14.326;2023-08-12T05:44:41;24.50;50.40
51613;DHT22;37694;51.748;14.326;2023-08-12T05:47:08;24.50;50.50
51613;DHT22;37694;51.748;14.326;2023-08-12T05:49:33;24.50;50.50
51613;DHT22;37694;51.748;14.326;2023-08-12T05:51:59;24.50;50.60
51613;DHT22;37694;51.748;14.326;2023-08-12T05:54:25;24.50;50.90
51613;DHT22;37694;51.748;14.326;2023-08-12T05:56:50;24.50;50.90
51613;DHT22;37694;51.748;14.326;2023-08-12T05:59:16;24.50;50.90
51613;DHT22;37694;51.748;14.326;2023-08-12T06:01:41;24.60;51.00
51613;DHT22;37694;51.748;14.326;2023-08-12T06:04:07;24.60;50.90
51613;DHT22;37694;51.748;14.326;2023-08-12T06:06:33;24.60;51.20
51613;DHT22;37694;51.748;14.326;2023-08-12T06:08:58;24.60;51.30
51613;DHT22;37694;51.748;14.326;2023-08-12T06:11:24;24.60;51.20
51613;DHT22;37694;51.748;14.326;2023-08-12T06:13:50;24.60;51.20
51613;DHT22;37694;51.748;14.326;2023-08-12T06:16:16;24.60;51.40
51613;DHT22;37694;51.748;14.326;2023-08-12T06:18:41;24.60;51.20
51613;DHT22;37694;51.748;14.326;2023-08-12T06:21:07;24.70;51.30
51613;DHT22;37694;51.748;14.326;2023-08-12T06:23:33;24.70;51.50
51613;DHT22;37694;51.748;14.326;2023-08-12T06:25:58;24.70;51.50
51613;DHT22;37694;51.748;14.326;2023-08-12T06:28:24;24.70;51.50
51613;DHT22;37694;51.748;14.326;2023-08-12T06:30:50;24.80;51.70
51613;DHT22;37694;51.748;14.326;2023-08-12T06:33:16;24.80;51.60
51613;DHT22;37694;51.748;14.326;2023-08-12T06:35:42;24.90;51.60
51613;DHT22;37694;51.748;14.326;2023-08-12T06:38:07;24.90;51.60
51613;DHT22;37694;51.748;14.326;2023-08-12T06:40:35;24.90;51.60
51613;DHT22;37694;51.748;14.326;2023-08-12T06:43:01;25.00;51.30
51613;DHT22;37694;51.748;14.326;2023-08-12T06:45:27;25.00;51.10
51613;DHT22;37694;51.748;14.326;2023-08-12T06:47:52;25.00;51.20
51613;DHT22;37694;51.748;14.326;2023-08-12T06:50:18;25.00;51.20
51613;DHT22;37694;51.748;14.326;2023-08-12T06:52:44;25.00;51.10
51613;DHT22;37694;51.748;14.326;2023-08-12T06:55:09;25.10;51.20
51613;DHT22;37694;51.748;14.326;2023-08-12T06:57:35;25.10;51.40
51613;DHT22;37694;51.748;14.326;2023-08-12T07:00:01;25.10;51.40
51613;DHT22;37694;51.748;14.326;2023-08-12T07:02:26;25.10;51.40
51613;DHT22;37694;51.748;14.326;2023-08-12T07:04:52;25.10;51.50
51613;DHT22;37694;51.748;14.326;2023-08-12T07:07:19;25.10;51.50
51613;DHT22;37694;51.748;14.326;2023-08-12T07:09:44;25.10;51.50
51613;DHT22;37694;51.748;14.326;2023-08-12T07:12:10;25.10;51.60
51613;DHT22;37694;51.748;14.326;2023-08-12T07:14:36;25.10;51.50
51613;DHT22;37694;51.748;14.326;2023-08-12T07:17:01;25.20;51.60
51613;DHT22;37694;51.748;14.326;2023-08-12T07:19:27;25.20;51.50
51613;DHT22;37694;51.748;14.326;2023-08-12T07:21:52;25.20;51.60
51613;DHT22;37694;51.748;14.326;2023-08-12T07:24:18;25.30;51.50
51613;DHT22;37694;51.748;14.326;2023-08-12T07:26:44;25.30;51.30
51613;DHT22;37694;51.748;14.326;2023-08-12T07:29:09;25.30;51.30
51613;DHT22;37694;51.748;14.326;2023-08-12T07:31:35;25.30;51.30
51613;DHT22;37694;51.748;14.326;2023-08-12T07:34:01;25.30;51.30
51613;DHT22;37694;51.748;14.326;2023-08-12T07:36:26;25.30;51.30
51613;DHT22;37694;51.748;14.326;2023-08-12T07:38:52;25.40;51.40
51613;DHT22;37694;51.748;14.326;2023-08-12T07:41:18;25.30;51.30
51613;DHT22;37694;51.748;14.326;2023-08-12T07:43:44;25.30;51.30
51613;DHT22;37694;51.748;14.326;2023-08-12T07:46:09;25.30;51.50
51613;DHT22;37694;51.748;14.326;2023-08-12T07:48:35;25.30;51.30
51613;DHT22;37694;51.748;14.326;2023-08-12T07:51:01;25.30;51.60
51613;DHT22;37694;51.748;14.326;2023-08-12T07:53:26;25.30;51.60
51613;DHT22;37694;51.748;14.326;2023-08-12T07:55:52;25.30;51.80
51613;DHT22;37694;51.748;14.326;2023-08-12T07:58:18;25.30;51.50
51613;DHT22;37694;51.748;14.326;2023-08-12T08:00:44;25.40;51.70
51613;DHT22;37694;51.748;14.326;2023-08-12T08:03:10;25.40;51.70
51613;DHT22;37694;51.748;14.326;2023-08-12T08:05:35;25.50;51.70
51613;DHT22;37694;51.748;14.326;2023-08-12T08:08:01;25.50;51.30
51613;DHT22;37694;51.748;14.326;2023-08-12T08:10:27;25.50;51.40
51613;DHT22;37694;51.748;14.326;2023-08-12T08:12:52;25.60;51.50
51613;DHT22;37694;51.748;14.326;2023-08-12T08:15:18;25.60;51.50
51613;DHT22;37694;51.748;14.326;2023-08-12T08:17:44;25.70;51.60
51613;DHT22;37694;51.748;14.326;2023-08-12T08:20:10;25.80;51.40
51613;DHT22;37694;51.748;14.326;2023-08-12T08:22:36;25.80;51.70
51613;DHT22;37694;51.748;14.326;2023-08-12T08:25:02;25.90;51.70
51613;DHT22;37694;51.748;14.326;2023-08-12T08:27:27;26.00;51.70
51613;DHT22;37694;51.748;14.326;2023-08-12T08:29:53;26.00;51.40
51613;DHT22;37694;51.748;14.326;2023-08-12T08:32:19;26.10;51.10
51613;DHT22;37694;51.748;14.326;2023-08-12T08:34:44;26.10;51.20
51613;DHT22;37694;51.748;14.326;2023-08-12T08:37:10;26.20;51.20
51613;DHT22;37694;51.748;14.326;2023-08-12T08:39:36;26.20;51.00
51613;DHT22;37694;51.748;14.326;2023-08-12T08:42:02;26.20;50.80
51613;DHT22;37694;51.748;14.326;2023-08-12T08:44:30;26.20;50.70
51613;DHT22;37694;51.748;14.326;2023-08-12T08:46:58;26.20;50.70
51613;DHT22;37694;51.748;14.326;2023-08-12T08:49:25;26.20;50.70
51613;DHT22;37694;51.748;14.326;2023-08-12T08:51:52;26.20;50.50
51613;DHT22;37694;51.748;14.326;2023-08-12T08:54:19;26.20;50.80
51613;DHT22;37694;51.748;14.326;2023-08-12T08:56:45;26.20;50.90
51613;DHT22;37694;51.748;14.326;2023-08-12T08:59:11;26.20;50.90
51613;DHT22;37694;51.748;14.326;2023-08-12T09:01:38;26.20;51.00
51613;DHT22;37694;51.748;14.326;2023-08-12T09:04:05;26.20;50.80
51613;DHT22;37694;51.748;14.326;2023-08-12T09:06:32;26.20;50.70
51613;DHT22;37694;51.748;14.326;2023-08-12T09:08:59;26.20;50.70
51613;DHT22;37694;51.748;14.326;2023-08-12T09:11:26;26.20;50.80
51613;DHT22;37694;51.748;14.326;2023-08-12T09:13:52;26.20;50.80
51613;DHT22;37694;51.748;14.326;2023-08-12T09:16:18;26.20;50.90
51613;DHT22;37694;51.748;14.326;2023-08-12T09:18:44;26.20;50.60
51613;DHT22;37694;51.748;14.326;2023-08-12T09:21:10;26.30;50.80
51613;DHT22;37694;51.748;14.326;2023-08-12T09:23:38;26.30;50.80
51613;DHT22;37694;51.748;14.326;2023-08-12T09:26:14;26.30;50.70
51613;DHT22;37694;51.748;14.326;2023-08-12T09:28:41;26.30;50.60
51613;DHT22;37694;51.748;14.326;2023-08-12T09:31:07;26.30;50.60
51613;DHT22;37694;51.748;14.326;2023-08-12T09:33:33;26.40;50.70
51613;DHT22;37694;51.748;14.326;2023-08-12T09:36:03;26.40;50.60
51613;DHT22;37694;51.748;14.326;2023-08-12T09:38:30;26.40;50.60
51613;DHT22;37694;51.748;14.326;2023-08-12T09:40:56;26.40;50.60
51613;DHT22;37694;51.748;14.326;2023-08-12T09:43:28;26.40;50.50
51613;DHT22;37694;51.748;14.326;2023-08-12T09:45:56;26.40;50.40
51613;DHT22;37694;51.748;14.326;2023-08-12T09:48:23;26.40;50.50
51613;DHT22;37694;51.748;14.326;2023-08-12T09:50:49;26.50;50.80
51613;DHT22;37694;51.748;14.326;2023-08-12T09:53:15;26.50;50.50
51613;DHT22;37694;51.748;14.326;2023-08-12T09:55:42;26.50;50.50
51613;DHT22;37694;51.748;14.326;2023-08-12T09:58:10;26.50;50.50
51613;DHT22;37694;51.748;14.326;2023-08-12T10:00:36;26.50;50.50
51613;DHT22;37694;51.748;14.326;2023-08-12T10:03:02;26.50;50.50
51613;DHT22;37694;51.748;14.326;2023-08-12T10:05:33;26.50;51.10
51613;DHT22;37694;51.748;14.326;2023-08-12T10:07:59;26.10;49.60
51613;DHT22;37694;51.748;14.326;2023-08-12T10:10:29;25.70;49.10
51613;DHT22;37694;51.748;14.326;2023-08-12T10:12:55;25.30;48.90
51613;DHT22;37694;51.748;14.326;2023-08-12T10:15:22;25.00;48.60
51613;DHT22;37694;51.748;14.326;2023-08-12T10:17:48;24.70;48.60
51613;DHT22;37694;51.748;14.326;2023-08-12T10:20:21;24.60;48.40
51613;DHT22;37694;51.748;14.326;2023-08-12T10:22:51;24.50;48.10
51613;DHT22;37694;51.748;14.326;2023-08-12T10:25:18;24.40;48.30
51613;DHT22;37694;51.748;14.326;2023-08-12T10:27:44;24.30;48.40
51613;DHT22;37694;51.748;14.326;2023-08-12T10:30:12;24.30;48.40
51613;DHT22;37694;51.748;14.326;2023-08-12T10:32:39;24.20;48.40
51613;DHT22;37694;51.748;14.326;2023-08-12T10:35:05;24.10;48.60
51613;DHT22;37694;51.748;14.326;2023-08-12T10:37:32;24.10;48.70
51613;DHT22;37694;51.748;14.326;2023-08-12T10:39:59;24.10;48.90
51613;DHT22;37694;51.748;14.326;2023-08-12T10:42:45;24.00;49.00
51613;DHT22;37694;51.748;14.326;2023-08-12T10:45:12;24.00;48.40
51613;DHT22;37694;51.748;14.326;2023-08-12T10:50:44;23.90;48.30
51613;DHT22;37694;51.748;14.326;2023-08-12T10:53:24;23.80;48.70
51613;DHT22;37694;51.748;14.326;2023-08-12T10:55:59;23.80;48.60
51613;DHT22;37694;51.748;14.326;2023-08-12T10:58:46;23.80;48.60
51613;DHT22;37694;51.748;14.326;2023-08-12T11:01:18;23.80;48.40
51613;DHT22;37694;51.748;14.326;2023-08-12T11:03:44;23.70;48.70
51613;DHT22;37694;51.748;14.326;2023-08-12T11:06:11;23.80;48.90
51613;DHT22;37694;51.748;14.326;2023-08-12T11:08:54;23.80;48.30
51613;DHT22;37694;51.748;14.326;2023-08-12T11:11:25;23.70;48.20
51613;DHT22;37694;51.748;14.326;2023-08-12T11:13:57;23.70;48.50
51613;DHT22;37694;51.748;14.326;2023-08-12T11:16:35;23.70;48.80
51613;DHT22;37694;51.748;14.326;2023-08-12T11:19:01;23.70;48.70
51613;DHT22;37694;51.748;14.326;2023-08-12T11:21:28;23.60;49.40
51613;DHT22;37694;51.748;14.326;2023-08-12T11:23:54;23.60;49.30
51613;DHT22;37694;51.748;14.326;2023-08-12T11:26:23;23.60;49.30
51613;DHT22;37694;51.748;14.326;2023-08-12T11:28:49;23.60;49.10
51613;DHT22;37694;51.748;14.326;2023-08-12T11:31:16;23.60;48.80
51613;DHT22;37694;51.748;14.326;2023-08-12T11:33:42;23.70;48.50
51613;DHT22;37694;51.748;14.326;2023-08-12T11:36:07;23.60;48.50
51613;DHT22;37694;51.748;14.326;2023-08-12T11:38:33;23.60;48.40
51613;DHT22;37694;51.748;14.326;2023-08-12T11:41:02;23.60;48.50
51613;DHT22;37694;51.748;14.326;2023-08-12T11:43:32;23.60;48.10
51613;DHT22;37694;51.748;14.326;2023-08-12T11:45:59;23.50;47.80
51613;DHT22;37694;51.748;14.326;2023-08-12T11:48:27;23.50;47.70
51613;DHT22;37694;51.748;14.326;2023-08-12T11:50:53;23.40;47.50
51613;DHT22;37694;51.748;14.326;2023-08-12T11:53:19;23.40;47.50
51613;DHT22;37694;51.748;14.326;2023-08-12T11:55:45;23.40;47.40
51613;DHT22;37694;51.748;14.326;2023-08-12T11:58:13;23.40;47.00
51613;DHT22;37694;51.748;14.326;2023-08-12T12:00:39;23.30;46.90
51613;DHT22;37694;51.748;14.326;2023-08-12T12:03:05;23.30;47.00
51613;DHT22;37694;51.748;14.326;2023-08-12T12:05:32;23.30;47.40
51613;DHT22;37694;51.748;14.326;2023-08-12T12:07:59;23.30;47.10
51613;DHT22;37694;51.748;14.326;2023-08-12T12:10:30;23.30;46.90
51613;DHT22;37694;51.748;14.326;2023-08-12T12:12:56;23.30;46.80
51613;DHT22;37694;51.748;14.326;2023-08-12T12:15:22;23.30;46.60
51613;DHT22;37694;51.748;14.326;2023-08-12T12:17:49;23.20;47.10
51613;DHT22;37694;51.748;14.326;2023-08-12T12:20:15;23.20;47.00
51613;DHT22;37694;51.748;14.326;2023-08-12T12:22:42;23.20;46.70
51613;DHT22;37694;51.748;14.326;2023-08-12T12:25:13;23.20;46.50
51613;DHT22;37694;51.748;14.326;2023-08-12T12:27:40;23.20;46.70
51613;DHT22;37694;51.748;14.326;2023-08-12T12:30:13;23.20;46.50
51613;DHT22;37694;51.748;14.326;2023-08-12T12:32:39;23.10;46.20
51613;DHT22;37694;51.748;14.326;2023-08-12T12:35:06;23.10;46.30
51613;DHT22;37694;51.748;14.326;2023-08-12T12:37:35;23.10;46.30
51613;DHT22;37694;51.748;14.326;2023-08-12T12:40:02;23.10;47.10
51613;DHT22;37694;51.748;14.326;2023-08-12T12:42:29;23.20;48.70
51613;DHT22;37694;51.748;14.326;2023-08-12T12:44:54;23.30;50.70
51613;DHT22;37694;51.748;14.326;2023-08-12T12:47:21;23.50;50.50
51613;DHT22;37694;51.748;14.326;2023-08-12T12:49:46;23.70;50.80
51613;DHT22;37694;51.748;14.326;2023-08-12T12:52:12;23.90;51.30
51613;DHT22;37694;51.748;14.326;2023-08-12T12:54:38;24.00;51.90
51613;DHT22;37694;51.748;14.326;2023-08-12T12:57:04;24.10;52.50
51613;DHT22;37694;51.748;14.326;2023-08-12T12:59:30;24.10;52.40
51613;DHT22;37694;51.748;14.326;2023-08-12T13:01:56;24.30;53.00
51613;DHT22;37694;51.748;14.326;2023-08-12T13:04:22;24.40;53.20
51613;DHT22;37694;51.748;14.326;2023-08-12T13:06:48;24.40;53.50
51613;DHT22;37694;51.748;14.326;2023-08-12T13:09:14;24.50;53.80
51613;DHT22;37694;51.748;14.326;2023-08-12T13:11:39;24.50;53.50
51613;DHT22;37694;51.748;14.326;2023-08-12T13:14:05;24.60;52.80
51613;DHT22;37694;51.748;14.326;2023-08-12T13:16:31;24.70;52.40
51613;DHT22;37694;51.748;14.326;2023-08-12T13:18:57;24.80;52.80
51613;DHT22;37694;51.748;14.326;2023-08-12T13:21:24;24.90;51.60
51613;DHT22;37694;51.748;14.326;2023-08-12T13:23:50;24.90;51.20
51613;DHT22;37694;51.748;14.326;2023-08-12T13:26:16;25.00;51.20
51613;DHT22;37694;51.748;14.326;2023-08-12T13:28:43;25.10;51.20
51613;DHT22;37694;51.748;14.326;2023-08-12T13:31:09;25.20;51.20
51613;DHT22;37694;51.748;14.326;2023-08-12T13:33:34;25.20;51.30
51613;DHT22;37694;51.748;14.326;2023-08-12T13:36:00;25.30;51.50
51613;DHT22;37694;51.748;14.326;2023-08-12T13:38:26;25.40;51.90
51613;DHT22;37694;51.748;14.326;2023-08-12T13:40:51;25.40;52.00
51613;DHT22;37694;51.748;14.326;2023-08-12T13:43:17;25.50;52.00
51613;DHT22;37694;51.748;14.326;2023-08-12T13:45:42;25.50;52.00
51613;DHT22;37694;51.748;14.326;2023-08-12T13:48:08;25.50;52.10
51613;DHT22;37694;51.748;14.326;2023-08-12T13:50:34;25.60;52.60
51613;DHT22;37694;51.748;14.326;2023-08-12T13:52:59;25.60;52.60
51613;DHT22;37694;51.748;14.326;2023-08-12T13:55:25;25.70;52.70
51613;DHT22;37694;51.748;14.326;2023-08-12T13:57:51;25.70;52.70
51613;DHT22;37694;51.748;14.326;2023-08-12T14:00:18;25.80;53.00
51613;DHT22;37694;51.748;14.326;2023-08-12T14:02:44;25.80;52.80
51613;DHT22;37694;51.748;14.326;2023-08-12T14:05:10;25.80;52.90
51613;DHT22;37694;51.748;14.326;2023-08-12T14:07:36;25.80;53.00
51613;DHT22;37694;51.748;14.326;2023-08-12T14:10:03;25.90;52.90
51613;DHT22;37694;51.748;14.326;2023-08-12T14:12:29;25.90;53.10
51613;DHT22;37694;51.748;14.326;2023-08-12T14:14:55;25.90;53.80
51613;DHT22;37694;51.748;14.326;2023-08-12T14:17:20;25.90;53.00
51613;DHT22;37694;51.748;14.326;2023-08-12T14:19:49;26.00;53.30
51613;DHT22;37694;51.748;14.326;2023-08-12T14:22:15;26.00;53.20
51613;DHT22;37694;51.748;14.326;2023-08-12T14:24:41;26.00;53.30
51613;DHT22;37694;51.748;14.326;2023-08-12T14:27:08;26.00;53.10
51613;DHT22;37694;51.748;14.326;2023-08-12T14:29:33;26.10;53.10
51613;DHT22;37694;51.748;14.326;2023-08-12T14:31:59;26.00;53.70
51613;DHT22;37694;51.748;14.326;2023-08-12T14:34:25;26.10;52.80
51613;DHT22;37694;51.748;14.326;2023-08-12T14:36:50;26.10;52.80
51613;DHT22;37694;51.748;14.326;2023-08-12T14:39:16;26.10;52.60
51613;DHT22;37694;51.748;14.326;2023-08-12T14:41:42;26.10;52.50
51613;DHT22;37694;51.748;14.326;2023-08-12T14:44:08;26.10;52.50
51613;DHT22;37694;51.748;14.326;2023-08-12T14:46:33;26.10;52.50
51613;DHT22;37694;51.748;14.326;2023-08-12T14:49:00;26.10;52.60
51613;DHT22;37694;51.748;14.326;2023-08-12T14:51:26;26.10;52.60
51613;DHT22;37694;51.748;14.326;2023-08-12T14:53:51;26.10;52.80
51613;DHT22;37694;51.748;14.326;2023-08-12T14:56:17;26.20;53.30
51613;DHT22;37694;51.748;14.326;2023-08-12T14:58:43;26.10;54.40
51613;DHT22;37694;51.748;14.326;2023-08-12T15:01:10;25.80;53.50
51613;DHT22;37694;51.748;14.326;2023-08-12T15:03:35;25.50;53.20
51613;DHT22;37694;51.748;14.326;2023-08-12T15:06:03;25.10;52.90
51613;DHT22;37694;51.748;14.326;2023-08-12T15:08:30;24.90;52.70
51613;DHT22;37694;51.748;14.326;2023-08-12T15:10:56;24.70;52.60
51613;DHT22;37694;51.748;14.326;2023-08-12T15:13:22;24.60;52.10
51613;DHT22;37694;51.748;14.326;2023-08-12T15:15:49;24.50;51.70
51613;DHT22;37694;51.748;14.326;2023-08-12T15:18:16;24.40;51.20